Time;durP1;ratioP1;P1;durP2;ratioP2;P2;SDS_P1;SDS_P2;PMS_P1;PMS_P2;Temp;Humidity;BMP_temperature;BMP_pressure;BME280_temperature;BME280_humidity;BME280_pressure;Samples;Min_cycle;Max_cycle;Signal;HPM_P1;HPM_P2
2022/04/24 00:00:07;;;;;;;4.73;3.03;;;;;;;;;;515718;28;1214;-83
2022/04/24 00:00:22;;;;;;;3.40;2.95;;;;;;;;;;515337;28;1485;-83
2022/04/24 00:00:38;;;;;;;3.40;2.97;;;;;;;;;;515259;28;1307;-83
2022/04/24 00:00:53;;;;;;;3.47;3.00;;;;;;;;;;515602;28;1339;-83
2022/04/24 00:01:09;;;;;;;3.50;3.20;;;;;;;;;;514985;28;1661;-83
2022/04/24 00:01:24;;;;;;;3.47;3.17;;;;;;;;;;512308;28;1612;-83
2022/04/24 00:01:39;;;;;;;5.10;3.17;;;;;;;;;;512551;28;1700;-83
2022/04/24 00:01:55;;;;;;;4.93;3.00;;;;;;;;;;514198;28;1606;-83
2022/04/24 00:02:12;;;;;;;3.50;3.00;;;;;;;;;;514179;28;1369;-83
2022/04/24 00:02:27;;;;;;;3.90;3.10;;;;;;;;;;515190;28;1364;-82
2022/04/24 00:02:43;;;;;;;4.07;3.20;;;;;;;;;;515718;28;1542;-83
2022/04/24 00:02:58;;;;;;;4.20;3.20;;;;;;;;;;515952;28;1331;-82
2022/04/24 00:03:14;;;;;;;3.70;3.10;;;;;;;;;;517091;28;1495;-83
2022/04/24 00:03:29;;;;;;;3.47;2.95;;;;;;;;;;518525;28;1496;-83
2022/04/24 00:03:44;;;;;;;3.50;2.97;;;;;;;;;;516076;28;1436;-83
2022/04/24 00:04:00;;;;;;;3.87;3.20;;;;;;;;;;517049;28;1841;-83
2022/04/24 00:04:16;;;;;;;3.97;3.30;;;;;;;;;;517638;28;1537;-83
2022/04/24 00:04:31;;;;;;;4.00;3.42;;;;;;;;;;517715;28;1577;-83
2022/04/24 00:04:47;;;;;;;4.27;3.43;;;;;;;;;;515879;28;1424;-83
2022/04/24 00:05:03;;;;;;;4.55;3.38;;;;;;;;;;515620;28;1372;-83
2022/04/24 00:05:18;;;;;;;4.25;3.30;;;;;;;;;;515466;28;1433;-83
2022/04/24 00:05:33;;;;;;;3.77;3.20;;;;;;;;;;512679;28;1427;-83
2022/04/24 00:05:49;;;;;;;4.23;3.33;;;;;;;;;;515094;28;1581;-83
2022/04/24 00:06:04;;;;;;;4.00;3.27;;;;;;;;;;513488;28;1545;-83
2022/04/24 00:06:20;;;;;;;3.83;3.03;;;;;;;;;;513181;28;1524;-83
2022/04/24 00:06:35;;;;;;;5.93;3.10;;;;;;;;;;511618;28;1480;-83
2022/04/24 00:06:53;;;;;;;5.45;3.20;;;;;;;;;;513128;28;1549;-83
2022/04/24 00:07:08;;;;;;;3.90;3.40;;;;;;;;;;513122;28;1457;-83
2022/04/24 00:07:24;;;;;;;3.93;3.53;;;;;;;;;;514309;28;1365;-83
2022/04/24 00:07:39;;;;;;;3.78;3.42;;;;;;;;;;515789;28;1615;-83
2022/04/24 00:07:54;;;;;;;3.40;3.00;;;;;;;;;;515833;28;1956;-83
2022/04/24 00:08:10;;;;;;;3.20;2.80;;;;;;;;;;517340;28;1360;-82
2022/04/24 00:08:25;;;;;;;3.30;3.00;;;;;;;;;;516415;28;1734;-83
2022/04/24 00:08:40;;;;;;;3.30;3.00;;;;;;;;;;515950;28;1624;-83
2022/04/24 00:08:56;;;;;;;3.28;2.97;;;;;;;;;;516104;28;1727;-83
2022/04/24 00:09:11;;;;;;;3.23;2.93;;;;;;;;;;515701;28;1285;-83
2022/04/24 00:09:28;;;;;;;3.50;2.90;;;;;;;;;;515749;28;1330;-83
2022/04/24 00:09:44;;;;;;;4.20;3.00;;;;;;;;;;515297;28;1700;-82
2022/04/24 00:09:59;;;;;;;4.07;3.20;;;;;;;;;;515506;28;1496;-83
2022/04/24 00:10:14;;;;;;;4.03;3.10;;;;;;;;;;515589;28;1583;-83
2022/04/24 00:10:30;;;;;;;4.10;2.97;;;;;;;;;;515365;28;1325;-83
2022/04/24 00:10:45;;;;;;;4.75;3.08;;;;;;;;;;515649;28;1540;-83
2022/04/24 00:11:01;;;;;;;4.17;3.20;;;;;;;;;;517905;28;1564;-83
2022/04/24 00:11:16;;;;;;;3.55;3.10;;;;;;;;;;517144;28;1536;-83
2022/04/24 00:11:32;;;;;;;4.10;3.10;;;;;;;;;;517711;28;1475;-83
2022/04/24 00:11:47;;;;;;;3.47;3.03;;;;;;;;;;517550;28;1318;-83
2022/04/24 00:12:05;;;;;;;3.43;3.10;;;;;;;;;;517328;28;1447;-83
2022/04/24 00:12:20;;;;;;;3.85;3.38;;;;;;;;;;518799;28;1459;-83
2022/04/24 00:12:36;;;;;;;4.53;3.30;;;;;;;;;;519167;28;1605;-82
2022/04/24 00:12:51;;;;;;;4.57;3.28;;;;;;;;;;517766;28;1471;-83
2022/04/24 00:13:07;;;;;;;4.93;3.33;;;;;;;;;;515041;28;1618;-83
2022/04/24 00:13:23;;;;;;;5.90;3.30;;;;;;;;;;515009;28;1353;-82
2022/04/24 00:13:41;;;;;;;4.93;3.13;;;;;;;;;;514857;28;1467;-83
2022/04/24 00:13:57;;;;;;;4.63;3.15;;;;;;;;;;515311;28;1439;-82
2022/04/24 00:14:13;;;;;;;5.88;3.30;;;;;;;;;;515854;28;1558;-83
2022/04/24 00:14:28;;;;;;;4.80;3.35;;;;;;;;;;514227;28;1632;-83
2022/04/24 00:14:44;;;;;;;3.90;3.50;;;;;;;;;;515485;28;1780;-83
2022/04/24 00:15:00;;;;;;;3.80;3.38;;;;;;;;;;517201;28;1408;-83
2022/04/24 00:15:15;;;;;;;3.83;3.30;;;;;;;;;;517073;28;1639;-82
2022/04/24 00:15:31;;;;;;;3.75;3.15;;;;;;;;;;515990;28;1562;-82
2022/04/24 00:15:46;;;;;;;3.40;3.10;;;;;;;;;;515910;28;1480;-83
2022/04/24 00:16:01;;;;;;;3.60;3.30;;;;;;;;;;517172;28;1564;-83
2022/04/24 00:16:17;;;;;;;3.70;3.30;;;;;;;;;;517339;28;1614;-83
2022/04/24 00:16:32;;;;;;;3.77;3.20;;;;;;;;;;517284;28;1424;-82
2022/04/24 00:16:47;;;;;;;4.17;3.27;;;;;;;;;;517763;28;1844;-83
2022/04/24 00:17:03;;;;;;;5.50;3.30;;;;;;;;;;517193;28;1437;-82
2022/04/24 00:17:20;;;;;;;5.37;3.30;;;;;;;;;;519214;28;1630;-83
2022/04/24 00:17:37;;;;;;;4.95;3.20;;;;;;;;;;519212;28;1454;-82
2022/04/24 00:17:52;;;;;;;4.55;3.10;;;;;;;;;;518889;28;1475;-82
2022/04/24 00:18:08;;;;;;;4.07;3.10;;;;;;;;;;517760;28;1640;-83
2022/04/24 00:18:23;;;;;;;3.67;3.10;;;;;;;;;;515445;28;1392;-83
2022/04/24 00:18:38;;;;;;;4.30;3.10;;;;;;;;;;514851;28;1432;-83
2022/04/24 00:18:54;;;;;;;4.83;3.23;;;;;;;;;;517020;28;1563;-83
2022/04/24 00:19:09;;;;;;;4.07;3.20;;;;;;;;;;517797;28;1562;-83
2022/04/24 00:19:24;;;;;;;4.03;3.10;;;;;;;;;;518450;28;1600;-83
2022/04/24 00:19:40;;;;;;;4.10;3.10;;;;;;;;;;517458;28;1395;-83
2022/04/24 00:19:55;;;;;;;4.20;3.43;;;;;;;;;;519413;28;1631;-83
2022/04/24 00:20:11;;;;;;;3.80;3.35;;;;;;;;;;517404;28;1587;-83
2022/04/24 00:20:26;;;;;;;3.40;3.10;;;;;;;;;;517750;28;1471;-83
2022/04/24 00:20:44;;;;;;;3.87;3.17;;;;;;;;;;517262;28;1455;-83
2022/04/24 00:21:00;;;;;;;4.05;3.00;;;;;;;;;;517021;28;1488;-83
2022/04/24 00:21:15;;;;;;;3.65;3.10;;;;;;;;;;517580;28;1483;-83
2022/04/24 00:21:31;;;;;;;3.43;3.13;;;;;;;;;;517908;28;1491;-83
2022/04/24 00:21:46;;;;;;;3.45;3.00;;;;;;;;;;516095;28;1244;-83
2022/04/24 00:22:02;;;;;;;3.22;2.92;;;;;;;;;;516645;28;1559;-83
2022/04/24 00:22:18;;;;;;;3.30;3.00;;;;;;;;;;516755;28;1380;-83
2022/04/24 00:22:33;;;;;;;3.40;3.10;;;;;;;;;;517903;28;1554;-83
2022/04/24 00:22:48;;;;;;;3.37;3.07;;;;;;;;;;517776;28;1292;-83
2022/04/24 00:23:04;;;;;;;4.40;3.15;;;;;;;;;;519764;28;1527;-83
2022/04/24 00:23:19;;;;;;;4.60;3.20;;;;;;;;;;519210;28;1471;-83
2022/04/24 00:23:35;;;;;;;3.30;3.00;;;;;;;;;;519783;28;1524;-83
2022/04/24 00:23:50;;;;;;;3.50;3.00;;;;;;;;;;519505;28;1427;-83
2022/04/24 00:24:06;;;;;;;3.80;3.20;;;;;;;;;;518055;28;1553;-83
2022/04/24 00:24:24;;;;;;;3.78;3.20;;;;;;;;;;519830;28;1631;-83
2022/04/24 00:24:39;;;;;;;4.25;3.30;;;;;;;;;;519482;28;1353;-82
2022/04/24 00:24:55;;;;;;;4.25;3.30;;;;;;;;;;519983;28;1551;-83
2022/04/24 00:25:10;;;;;;;3.70;3.20;;;;;;;;;;519878;28;1492;-83
2022/04/24 00:25:26;;;;;;;4.05;3.25;;;;;;;;;;517817;28;1435;-83
2022/04/24 00:25:41;;;;;;;3.67;3.03;;;;;;;;;;517896;28;1683;-83
2022/04/24 00:25:57;;;;;;;3.25;2.95;;;;;;;;;;518201;28;1589;-83
2022/04/24 00:26:13;;;;;;;4.32;3.20;;;;;;;;;;516766;28;1701;-83
2022/04/24 00:26:29;;;;;;;5.27;3.33;;;;;;;;;;515884;28;1440;-83
2022/04/24 00:26:44;;;;;;;4.95;3.10;;;;;;;;;;515728;28;1499;-83
2022/04/24 00:27:00;;;;;;;5.33;3.10;;;;;;;;;;513609;28;1665;-83
2022/04/24 00:27:15;;;;;;;4.25;3.10;;;;;;;;;;517316;28;1368;-83
2022/04/24 00:27:32;;;;;;;3.43;3.13;;;;;;;;;;516960;28;1889;-82
2022/04/24 00:27:47;;;;;;;3.50;3.17;;;;;;;;;;516348;28;1910;-83
2022/04/24 00:28:03;;;;;;;4.32;3.25;;;;;;;;;;517476;28;1493;-83
2022/04/24 00:28:18;;;;;;;4.20;3.40;;;;;;;;;;517752;28;1417;-82
2022/04/24 00:28:34;;;;;;;3.70;3.30;;;;;;;;;;516875;28;1434;-83
2022/04/24 00:28:49;;;;;;;3.70;3.30;;;;;;;;;;517139;28;1609;-83
2022/04/24 00:29:05;;;;;;;4.22;3.30;;;;;;;;;;515641;28;1351;-83
2022/04/24 00:29:21;;;;;;;5.23;3.10;;;;;;;;;;515606;28;1594;-83
2022/04/24 00:29:37;;;;;;;5.05;3.08;;;;;;;;;;513948;28;1570;-83
2022/04/24 00:29:52;;;;;;;4.47;3.08;;;;;;;;;;516138;28;1664;-83
2022/04/24 00:30:08;;;;;;;4.10;3.10;;;;;;;;;;516812;28;1538;-83
2022/04/24 00:30:24;;;;;;;3.28;2.97;;;;;;;;;;516724;28;1716;-83
2022/04/24 00:30:39;;;;;;;4.23;3.10;;;;;;;;;;518011;28;1601;-83
2022/04/24 00:30:55;;;;;;;4.25;3.03;;;;;;;;;;516544;28;1387;-82
2022/04/24 00:31:11;;;;;;;3.78;3.10;;;;;;;;;;517436;28;1726;-82
2022/04/24 00:31:26;;;;;;;4.00;3.40;;;;;;;;;;517733;28;1808;-83
2022/04/24 00:31:41;;;;;;;4.40;3.43;;;;;;;;;;516084;28;1497;-83
2022/04/24 00:31:57;;;;;;;3.92;3.20;;;;;;;;;;516176;28;1499;-82
2022/04/24 00:32:12;;;;;;;4.00;3.30;;;;;;;;;;515557;28;1648;-83
2022/04/24 00:32:28;;;;;;;4.75;3.60;;;;;;;;;;512898;28;1445;-83
2022/04/24 00:32:43;;;;;;;3.97;3.27;;;;;;;;;;513768;28;1573;-83
2022/04/24 00:32:58;;;;;;;3.47;3.13;;;;;;;;;;515688;28;1551;-83
2022/04/24 00:33:14;;;;;;;3.65;3.30;;;;;;;;;;516182;28;1168;-83
2022/04/24 00:33:29;;;;;;;3.80;3.20;;;;;;;;;;516710;28;1519;-83
2022/04/24 00:33:45;;;;;;;3.83;3.00;;;;;;;;;;515480;28;1453;-83
2022/04/24 00:34:00;;;;;;;3.77;3.10;;;;;;;;;;514163;28;1457;-83
2022/04/24 00:34:16;;;;;;;3.55;3.25;;;;;;;;;;515805;28;1724;-83
2022/04/24 00:34:32;;;;;;;3.33;3.03;;;;;;;;;;516623;28;1461;-82
2022/04/24 00:34:47;;;;;;;3.47;3.03;;;;;;;;;;515374;28;1629;-83
2022/04/24 00:35:03;;;;;;;3.92;3.22;;;;;;;;;;516432;28;1344;-83
2022/04/24 00:35:18;;;;;;;3.63;3.07;;;;;;;;;;515872;28;1448;-83
2022/04/24 00:35:34;;;;;;;3.90;3.20;;;;;;;;;;515791;28;1349;-83
2022/04/24 00:35:49;;;;;;;3.72;3.30;;;;;;;;;;514629;28;1345;-83
2022/04/24 00:36:05;;;;;;;3.47;3.17;;;;;;;;;;515226;28;1675;-83
2022/04/24 00:36:20;;;;;;;4.35;3.30;;;;;;;;;;513344;28;1501;-83
2022/04/24 00:36:35;;;;;;;4.47;3.27;;;;;;;;;;513836;28;1375;-83
2022/04/24 00:36:51;;;;;;;3.88;3.10;;;;;;;;;;513912;28;1630;-83
2022/04/24 00:37:07;;;;;;;3.63;3.13;;;;;;;;;;511578;29;1493;-83
2022/04/24 00:37:22;;;;;;;3.58;3.17;;;;;;;;;;511430;28;1778;-83
2022/04/24 00:37:38;;;;;;;3.73;3.27;;;;;;;;;;512090;28;1418;-83
2022/04/24 00:37:53;;;;;;;3.53;3.20;;;;;;;;;;512625;28;2061;-83
2022/04/24 00:38:08;;;;;;;3.87;3.10;;;;;;;;;;513580;28;1559;-83
2022/04/24 00:38:24;;;;;;;4.00;3.20;;;;;;;;;;513216;28;1429;-83
2022/04/24 00:38:39;;;;;;;3.47;3.13;;;;;;;;;;513801;28;1477;-82
2022/04/24 00:38:54;;;;;;;3.40;3.10;;;;;;;;;;513419;28;1509;-82
2022/04/24 00:39:10;;;;;;;3.50;3.20;;;;;;;;;;515623;28;1477;-83
2022/04/24 00:39:25;;;;;;;3.33;3.03;;;;;;;;;;517609;28;1519;-83
2022/04/24 00:39:41;;;;;;;3.20;2.90;;;;;;;;;;517583;28;1349;-82
2022/04/24 00:39:56;;;;;;;3.63;3.03;;;;;;;;;;519127;28;1610;-83
2022/04/24 00:40:12;;;;;;;3.95;3.03;;;;;;;;;;517072;28;1363;-83
2022/04/24 00:40:27;;;;;;;3.67;3.00;;;;;;;;;;517903;28;1467;-83
2022/04/24 00:40:47;;;;;;;3.37;3.00;;;;;;;;;;517922;28;1655;-83
2022/04/24 00:41:03;;;;;;;3.33;3.00;;;;;;;;;;518750;28;1668;-80
2022/04/24 00:41:18;;;;;;;3.63;2.90;;;;;;;;;;518220;28;1529;-80
2022/04/24 00:41:34;;;;;;;4.40;3.03;;;;;;;;;;520119;28;1160;-80
2022/04/24 00:41:50;;;;;;;4.37;3.20;;;;;;;;;;519592;28;935;-81
2022/04/24 00:42:08;;;;;;;3.53;3.10;;;;;;;;;;519584;28;1041;-81
2022/04/24 00:42:23;;;;;;;3.83;3.00;;;;;;;;;;520402;28;883;-80
2022/04/24 00:42:39;;;;;;;4.30;3.03;;;;;;;;;;520444;28;809;-80
2022/04/24 00:42:54;;;;;;;4.20;3.10;;;;;;;;;;518312;28;1263;-80
2022/04/24 00:43:09;;;;;;;3.45;3.03;;;;;;;;;;518286;28;825;-81
2022/04/24 00:43:25;;;;;;;3.30;3.00;;;;;;;;;;515975;28;1610;-81
2022/04/24 00:43:41;;;;;;;3.63;3.07;;;;;;;;;;515060;28;1424;-80
2022/04/24 00:43:56;;;;;;;4.10;2.97;;;;;;;;;;516515;28;1624;-80
2022/04/24 00:44:12;;;;;;;3.70;2.97;;;;;;;;;;516808;28;809;-80
2022/04/24 00:44:28;;;;;;;3.43;3.13;;;;;;;;;;516087;28;1799;-81
2022/04/24 00:44:44;;;;;;;3.30;3.00;;;;;;;;;;514637;28;1404;-81
2022/04/24 00:44:59;;;;;;;3.43;2.87;;;;;;;;;;516197;28;1727;-81
2022/04/24 00:45:15;;;;;;;3.88;2.95;;;;;;;;;;516809;28;915;-80
2022/04/24 00:45:30;;;;;;;4.03;3.10;;;;;;;;;;515616;28;1632;-81
2022/04/24 00:45:47;;;;;;;3.92;3.20;;;;;;;;;;517788;28;1484;-81
2022/04/24 00:46:14;;;;;;;3.60;3.17;;;;;;;;;;517127;28;1459;-80
2022/04/24 00:46:56;;;;;;;3.58;3.00;;;;;;;;;;518113;28;1648;-80
2022/04/24 00:47:20;;;;;;;3.47;3.15;;;;;;;;;;513656;28;1336;-80
2022/04/24 00:47:35;;;;;;;3.38;3.00;;;;;;;;;;521399;28;1749;-80
2022/04/24 00:47:51;;;;;;;3.35;3.03;;;;;;;;;;519921;28;1910;-81
2022/04/24 00:48:07;;;;;;;3.40;3.10;;;;;;;;;;519876;28;1774;-80
2022/04/24 00:48:22;;;;;;;3.58;3.00;;;;;;;;;;517509;28;1569;-80
2022/04/24 00:48:38;;;;;;;3.72;2.90;;;;;;;;;;518307;28;1038;-80
2022/04/24 00:48:54;;;;;;;3.53;2.97;;;;;;;;;;518176;28;1793;-80
2022/04/24 00:49:13;;;;;;;4.13;3.10;;;;;;;;;;518238;28;1568;-80
2022/04/24 00:49:29;;;;;;;4.80;3.30;;;;;;;;;;517672;28;884;-80
2022/04/24 00:49:45;;;;;;;3.70;2.95;;;;;;;;;;518970;28;1564;-80
2022/04/24 00:50:00;;;;;;;3.55;2.67;;;;;;;;;;520259;28;1242;-80
2022/04/24 00:50:17;;;;;;;4.03;2.72;;;;;;;;;;520049;28;1797;-80
2022/04/24 00:50:34;;;;;;;3.85;2.83;;;;;;;;;;520176;28;1098;-80
2022/04/24 00:50:50;;;;;;;4.68;3.00;;;;;;;;;;518098;28;1251;-80
2022/04/24 00:51:05;;;;;;;4.57;3.10;;;;;;;;;;515872;28;1606;-80
2022/04/24 00:51:21;;;;;;;3.30;2.92;;;;;;;;;;516838;28;1569;-80
2022/04/24 00:51:38;;;;;;;3.37;2.97;;;;;;;;;;516833;28;1516;-80
2022/04/24 00:51:53;;;;;;;3.38;3.00;;;;;;;;;;516703;28;1366;-80
2022/04/24 00:52:09;;;;;;;3.40;2.90;;;;;;;;;;517952;28;1825;-80
2022/04/24 00:52:25;;;;;;;3.60;2.85;;;;;;;;;;516141;28;1711;-80
2022/04/24 00:52:40;;;;;;;3.57;2.90;;;;;;;;;;515820;28;1543;-80
2022/04/24 00:52:56;;;;;;;4.10;3.13;;;;;;;;;;516060;28;1155;-81
2022/04/24 00:53:11;;;;;;;3.57;3.00;;;;;;;;;;515949;28;1660;-80
2022/04/24 00:53:26;;;;;;;3.03;2.73;;;;;;;;;;515808;28;1007;-81
2022/04/24 00:53:42;;;;;;;3.13;2.83;;;;;;;;;;515792;28;841;-81
2022/04/24 00:53:59;;;;;;;3.63;2.90;;;;;;;;;;518356;28;908;-80
2022/04/24 00:54:14;;;;;;;4.07;3.00;;;;;;;;;;518590;28;1588;-80
2022/04/24 00:54:30;;;;;;;3.75;3.00;;;;;;;;;;520389;28;1486;-80
2022/04/24 00:54:45;;;;;;;3.40;3.10;;;;;;;;;;520476;28;899;-80
2022/04/24 00:55:10;;;;;;;3.30;3.00;;;;;;;;;;519845;28;793;-80
2022/04/24 00:55:27;;;;;;;3.40;3.10;;;;;;;;;;519689;28;1587;-80
2022/04/24 00:55:43;;;;;;;3.38;3.08;;;;;;;;;;519974;28;1697;-80
2022/04/24 00:55:59;;;;;;;3.40;3.00;;;;;;;;;;520140;28;1601;-80
2022/04/24 00:56:15;;;;;;;3.65;3.00;;;;;;;;;;520375;28;808;-80
2022/04/24 00:56:32;;;;;;;4.63;3.23;;;;;;;;;;520389;28;1144;-80
2022/04/24 00:56:47;;;;;;;4.67;3.13;;;;;;;;;;518804;28;1447;-80
2022/04/24 00:57:07;;;;;;;3.30;3.00;;;;;;;;;;518980;28;804;-80
2022/04/24 00:57:23;;;;;;;4.55;3.05;;;;;;;;;;516701;28;1211;-80
2022/04/24 00:57:41;;;;;;;3.97;2.93;;;;;;;;;;516127;28;1059;-80
2022/04/24 00:57:57;;;;;;;3.35;2.90;;;;;;;;;;517523;28;1436;-80
2022/04/24 00:58:12;;;;;;;3.70;2.93;;;;;;;;;;517716;28;1659;-80
2022/04/24 00:58:28;;;;;;;3.85;3.00;;;;;;;;;;517092;28;939;-80
2022/04/24 00:58:43;;;;;;;3.43;2.90;;;;;;;;;;518702;28;1523;-80
2022/04/24 00:59:01;;;;;;;3.63;2.70;;;;;;;;;;520117;28;1500;-80
2022/04/24 00:59:17;;;;;;;4.30;2.95;;;;;;;;;;517011;28;1741;-80
2022/04/24 00:59:32;;;;;;;3.90;3.10;;;;;;;;;;519338;28;1220;-80
2022/04/24 00:59:47;;;;;;;3.45;3.00;;;;;;;;;;519471;28;1579;-80
2022/04/24 01:00:03;;;;;;;3.33;3.03;;;;;;;;;;520075;28;1869;-80
2022/04/24 01:00:19;;;;;;;3.40;3.10;;;;;;;;;;517808;28;1579;-80
2022/04/24 01:00:38;;;;;;;3.58;2.90;;;;;;;;;;517309;28;1207;-80
2022/04/24 01:00:55;;;;;;;4.78;3.08;;;;;;;;;;516010;28;1268;-80
2022/04/24 01:01:10;;;;;;;4.18;3.10;;;;;;;;;;516338;28;1347;-80
2022/04/24 01:01:26;;;;;;;4.50;3.00;;;;;;;;;;517677;28;1081;-80
2022/04/24 01:01:42;;;;;;;4.10;3.07;;;;;;;;;;517325;28;1703;-80
2022/04/24 01:01:59;;;;;;;4.45;3.13;;;;;;;;;;518355;28;1952;-80
2022/04/24 01:02:14;;;;;;;4.30;3.20;;;;;;;;;;518229;28;1960;-80
2022/04/24 01:02:29;;;;;;;3.97;3.05;;;;;;;;;;520097;28;959;-80
2022/04/24 01:02:45;;;;;;;4.10;3.10;;;;;;;;;;518962;28;1209;-80
2022/04/24 01:03:00;;;;;;;3.40;3.10;;;;;;;;;;520348;28;1199;-80
2022/04/24 01:03:15;;;;;;;3.22;2.90;;;;;;;;;;520023;28;1458;-80
2022/04/24 01:03:31;;;;;;;4.00;2.87;;;;;;;;;;518998;28;1573;-80
2022/04/24 01:03:46;;;;;;;4.30;3.00;;;;;;;;;;519064;28;1792;-80
2022/04/24 01:04:05;;;;;;;4.03;3.17;;;;;;;;;;517230;28;1775;-80
2022/04/24 01:04:20;;;;;;;5.50;3.25;;;;;;;;;;518242;28;1674;-80
2022/04/24 01:04:37;;;;;;;4.60;2.88;;;;;;;;;;516650;28;1586;-80
2022/04/24 01:04:53;;;;;;;3.20;2.80;;;;;;;;;;517501;28;1445;-80
2022/04/24 01:05:09;;;;;;;3.08;2.78;;;;;;;;;;516167;28;1482;-80
2022/04/24 01:05:25;;;;;;;3.80;2.90;;;;;;;;;;516178;28;805;-80
2022/04/24 01:05:40;;;;;;;3.78;2.92;;;;;;;;;;516083;28;1739;-80
2022/04/24 01:05:56;;;;;;;3.10;2.80;;;;;;;;;;516200;28;1439;-80
2022/04/24 01:06:11;;;;;;;3.30;3.00;;;;;;;;;;518568;28;1472;-80
2022/04/24 01:06:30;;;;;;;3.38;3.00;;;;;;;;;;518767;28;1224;-80
2022/04/24 01:06:45;;;;;;;4.15;3.00;;;;;;;;;;519356;28;1553;-80
2022/04/24 01:07:00;;;;;;;3.87;2.80;;;;;;;;;;518080;28;824;-80
2022/04/24 01:07:16;;;;;;;3.88;2.83;;;;;;;;;;518209;28;857;-80
2022/04/24 01:07:31;;;;;;;3.30;2.90;;;;;;;;;;518455;28;801;-80
2022/04/24 01:07:47;;;;;;;3.10;2.80;;;;;;;;;;518544;28;1990;-80
2022/04/24 01:08:02;;;;;;;3.20;2.90;;;;;;;;;;516021;28;1307;-80
2022/04/24 01:08:17;;;;;;;3.53;3.00;;;;;;;;;;515886;28;1395;-80
2022/04/24 01:08:34;;;;;;;3.65;3.00;;;;;;;;;;514835;28;1790;-80
2022/04/24 01:08:49;;;;;;;3.53;3.08;;;;;;;;;;516890;28;1538;-80
2022/04/24 01:09:17;;;;;;;3.57;3.10;;;;;;;;;;516985;28;1309;-80
2022/04/24 01:09:34;;;;;;;3.75;3.13;;;;;;;;;;518526;28;912;-80
2022/04/24 01:09:50;;;;;;;4.30;3.20;;;;;;;;;;518456;28;1754;-80
2022/04/24 01:10:05;;;;;;;3.70;3.20;;;;;;;;;;520337;28;1435;-80
2022/04/24 01:10:21;;;;;;;4.15;3.25;;;;;;;;;;522617;28;1629;-80
2022/04/24 01:10:39;;;;;;;4.03;3.27;;;;;;;;;;521957;28;1693;-80
2022/04/24 01:10:55;;;;;;;4.13;3.13;;;;;;;;;;519829;28;1781;-80
2022/04/24 01:11:10;;;;;;;3.70;2.93;;;;;;;;;;519812;28;1579;-80
2022/04/24 01:11:26;;;;;;;3.60;3.08;;;;;;;;;;519945;28;1601;-80
2022/04/24 01:11:42;;;;;;;3.80;3.40;;;;;;;;;;518737;28;1250;-80
2022/04/24 01:11:58;;;;;;;3.50;3.20;;;;;;;;;;518599;28;836;-80
2022/04/24 01:12:13;;;;;;;3.63;3.17;;;;;;;;;;520345;28;1492;-80
2022/04/24 01:12:29;;;;;;;4.00;3.20;;;;;;;;;;519938;28;1891;-80
2022/04/24 01:12:44;;;;;;;3.50;3.17;;;;;;;;;;518270;28;1492;-80
2022/04/24 01:12:59;;;;;;;4.53;3.13;;;;;;;;;;518995;28;1580;-80
2022/04/24 01:13:15;;;;;;;4.43;3.10;;;;;;;;;;516359;28;1610;-80
2022/04/24 01:13:30;;;;;;;3.47;3.10;;;;;;;;;;518445;28;1090;-80
2022/04/24 01:13:45;;;;;;;4.00;3.00;;;;;;;;;;519728;28;1470;-80
2022/04/24 01:14:01;;;;;;;3.33;2.80;;;;;;;;;;517900;28;1639;-80
2022/04/24 01:14:18;;;;;;;3.35;2.92;;;;;;;;;;517793;28;1415;-80
2022/04/24 01:14:35;;;;;;;3.95;3.20;;;;;;;;;;518396;28;1695;-80
2022/04/24 01:14:50;;;;;;;3.85;3.15;;;;;;;;;;520198;28;963;-80
2022/04/24 01:15:06;;;;;;;3.67;3.00;;;;;;;;;;519833;28;1262;-80
2022/04/24 01:15:21;;;;;;;3.40;3.10;;;;;;;;;;517440;28;828;-80
2022/04/24 01:15:36;;;;;;;3.38;2.92;;;;;;;;;;518873;28;1876;-80
2022/04/24 01:15:56;;;;;;;3.73;3.10;;;;;;;;;;518178;28;1554;-80
2022/04/24 01:16:12;;;;;;;3.45;3.15;;;;;;;;;;517709;28;1568;-80
2022/04/24 01:16:27;;;;;;;3.30;3.00;;;;;;;;;;516007;28;1283;-80
2022/04/24 01:16:44;;;;;;;3.40;3.07;;;;;;;;;;514887;28;876;-80
2022/04/24 01:17:04;;;;;;;3.38;3.08;;;;;;;;;;516875;28;1703;-80
2022/04/24 01:17:20;;;;;;;3.10;2.80;;;;;;;;;;518071;28;1865;-80
2022/04/24 01:17:35;;;;;;;3.40;3.10;;;;;;;;;;518484;28;1659;-80
2022/04/24 01:17:51;;;;;;;4.50;3.30;;;;;;;;;;518370;28;1588;-80
2022/04/24 01:18:07;;;;;;;4.30;3.10;;;;;;;;;;517813;28;1714;-80
2022/04/24 01:18:23;;;;;;;3.97;2.90;;;;;;;;;;518186;28;1222;-80
2022/04/24 01:18:40;;;;;;;4.38;3.00;;;;;;;;;;515118;28;1207;-80
2022/04/24 01:18:57;;;;;;;4.38;3.00;;;;;;;;;;514695;28;832;-80
2022/04/24 01:19:13;;;;;;;4.03;2.85;;;;;;;;;;516210;28;1219;-80
2022/04/24 01:19:29;;;;;;;3.03;2.73;;;;;;;;;;516245;28;931;-80
2022/04/24 01:19:44;;;;;;;3.28;2.80;;;;;;;;;;514905;28;1463;-80
2022/04/24 01:20:00;;;;;;;3.13;2.83;;;;;;;;;;517372;28;1480;-80
2022/04/24 01:20:19;;;;;;;3.03;2.72;;;;;;;;;;518594;28;1617;-80
2022/04/24 01:20:35;;;;;;;3.53;3.00;;;;;;;;;;522088;28;2014;-80
2022/04/24 01:20:50;;;;;;;3.53;3.00;;;;;;;;;;520879;28;1582;-80
2022/04/24 01:21:07;;;;;;;3.40;3.10;;;;;;;;;;520567;28;1550;-80
2022/04/24 01:21:23;;;;;;;3.50;3.05;;;;;;;;;;520546;28;941;-80
2022/04/24 01:21:41;;;;;;;5.60;3.10;;;;;;;;;;520321;28;1283;-80
2022/04/24 01:21:57;;;;;;;5.13;3.17;;;;;;;;;;518233;28;1353;-80
2022/04/24 01:22:12;;;;;;;4.07;3.08;;;;;;;;;;518134;28;899;-80
2022/04/24 01:22:28;;;;;;;3.70;2.90;;;;;;;;;;518141;28;1268;-80
2022/04/24 01:22:43;;;;;;;3.20;2.80;;;;;;;;;;518710;28;872;-80
2022/04/24 01:22:59;;;;;;;3.17;2.85;;;;;;;;;;518903;28;1708;-80
2022/04/24 01:23:14;;;;;;;3.47;2.90;;;;;;;;;;518542;28;1659;-80
2022/04/24 01:23:29;;;;;;;3.47;2.88;;;;;;;;;;517721;28;1085;-80
2022/04/24 01:23:45;;;;;;;3.37;2.93;;;;;;;;;;519352;28;904;-80
2022/04/24 01:24:03;;;;;;;4.10;3.23;;;;;;;;;;519780;28;1776;-80
2022/04/24 01:24:21;;;;;;;4.18;3.30;;;;;;;;;;520771;28;1035;-80
2022/04/24 01:24:36;;;;;;;4.00;3.10;;;;;;;;;;522125;28;848;-80
2022/04/24 01:24:52;;;;;;;3.92;2.90;;;;;;;;;;521284;28;1558;-80
2022/04/24 01:25:07;;;;;;;3.20;2.90;;;;;;;;;;522404;28;784;-80
2022/04/24 01:25:23;;;;;;;3.25;2.95;;;;;;;;;;522141;28;824;-81
2022/04/24 01:25:39;;;;;;;3.37;3.07;;;;;;;;;;522334;28;1800;-80
2022/04/24 01:25:54;;;;;;;3.35;3.05;;;;;;;;;;521578;28;1402;-80
2022/04/24 01:26:10;;;;;;;3.27;2.90;;;;;;;;;;519266;28;1557;-80
2022/04/24 01:26:25;;;;;;;3.70;3.00;;;;;;;;;;519981;28;947;-80
2022/04/24 01:26:41;;;;;;;4.43;3.20;;;;;;;;;;520070;28;1461;-80
2022/04/24 01:26:56;;;;;;;3.93;3.17;;;;;;;;;;520200;28;892;-80
2022/04/24 01:27:11;;;;;;;3.40;3.10;;;;;;;;;;519846;28;1206;-80
2022/04/24 01:27:27;;;;;;;4.70;3.10;;;;;;;;;;519142;28;2409;-80
2022/04/24 01:27:43;;;;;;;5.45;3.20;;;;;;;;;;518023;28;1904;-80
2022/04/24 01:27:58;;;;;;;4.67;3.00;;;;;;;;;;517434;28;1922;-80
2022/04/24 01:28:13;;;;;;;4.22;2.83;;;;;;;;;;516266;28;1257;-80
2022/04/24 01:28:29;;;;;;;3.87;3.10;;;;;;;;;;518118;28;1374;-80
2022/04/24 01:28:44;;;;;;;4.17;3.17;;;;;;;;;;518022;28;1422;-80
2022/04/24 01:29:00;;;;;;;3.70;3.10;;;;;;;;;;515967;28;1129;-80
2022/04/24 01:29:16;;;;;;;3.50;3.20;;;;;;;;;;515504;28;1361;-80
2022/04/24 01:29:32;;;;;;;3.83;3.33;;;;;;;;;;513395;28;1154;-81
2022/04/24 01:29:47;;;;;;;3.80;3.27;;;;;;;;;;514094;28;1661;-81
2022/04/24 01:30:04;;;;;;;3.60;3.00;;;;;;;;;;512043;28;2548;-81
2022/04/24 01:30:19;;;;;;;3.53;2.85;;;;;;;;;;512570;28;1552;-81
2022/04/24 01:30:36;;;;;;;3.07;2.77;;;;;;;;;;514304;28;1656;-80
2022/04/24 01:30:51;;;;;;;3.25;2.85;;;;;;;;;;514318;28;1404;-80
2022/04/24 01:31:06;;;;;;;3.78;2.95;;;;;;;;;;516050;28;1664;-80
2022/04/24 01:31:22;;;;;;;3.20;2.87;;;;;;;;;;513876;28;1591;-82
2022/04/24 01:31:38;;;;;;;3.30;3.00;;;;;;;;;;511578;28;1442;-82
2022/04/24 01:31:54;;;;;;;3.40;3.03;;;;;;;;;;512280;28;1659;-82
2022/04/24 01:32:09;;;;;;;3.60;3.10;;;;;;;;;;512909;28;1595;-82
2022/04/24 01:32:25;;;;;;;3.43;3.03;;;;;;;;;;513498;28;1625;-82
2022/04/24 01:32:40;;;;;;;3.10;2.80;;;;;;;;;;513177;28;1533;-82
2022/04/24 01:32:55;;;;;;;3.17;2.88;;;;;;;;;;510756;29;1473;-82
2022/04/24 01:33:11;;;;;;;3.77;3.00;;;;;;;;;;512323;28;1787;-82
2022/04/24 01:33:28;;;;;;;3.50;3.00;;;;;;;;;;514600;28;1449;-82
2022/04/24 01:33:45;;;;;;;3.65;3.03;;;;;;;;;;514415;28;1693;-82
2022/04/24 01:34:01;;;;;;;3.63;3.20;;;;;;;;;;514711;28;1521;-82
2022/04/24 01:34:17;;;;;;;3.63;3.20;;;;;;;;;;515616;28;2000;-82
2022/04/24 01:34:33;;;;;;;3.47;3.08;;;;;;;;;;515871;28;1414;-82
2022/04/24 01:34:48;;;;;;;3.70;3.10;;;;;;;;;;515841;28;1327;-82
2022/04/24 01:35:04;;;;;;;4.00;3.30;;;;;;;;;;516409;28;1697;-82
2022/04/24 01:35:19;;;;;;;3.53;3.15;;;;;;;;;;516566;28;1535;-82
2022/04/24 01:35:35;;;;;;;3.57;3.00;;;;;;;;;;517915;28;1518;-82
2022/04/24 01:35:50;;;;;;;3.33;3.00;;;;;;;;;;515055;28;1416;-82
2022/04/24 01:36:06;;;;;;;3.28;2.97;;;;;;;;;;516436;28;1595;-82
2022/04/24 01:36:21;;;;;;;3.17;2.87;;;;;;;;;;516439;28;1628;-82
2022/04/24 01:36:36;;;;;;;3.13;2.83;;;;;;;;;;511619;28;1446;-82
2022/04/24 01:36:52;;;;;;;3.83;3.17;;;;;;;;;;511436;28;1767;-82
2022/04/24 01:37:08;;;;;;;3.95;3.15;;;;;;;;;;512491;28;817;-82
2022/04/24 01:37:23;;;;;;;3.27;2.97;;;;;;;;;;513205;28;1655;-82
2022/04/24 01:37:43;;;;;;;3.40;2.90;;;;;;;;;;513037;28;1306;-82
2022/04/24 01:37:58;;;;;;;4.10;2.92;;;;;;;;;;514355;28;1302;-82
2022/04/24 01:38:14;;;;;;;4.18;2.97;;;;;;;;;;515302;28;1482;-82
2022/04/24 01:38:29;;;;;;;3.40;2.97;;;;;;;;;;517693;28;1531;-82
2022/04/24 01:38:44;;;;;;;3.40;2.90;;;;;;;;;;519031;28;1384;-82
2022/04/24 01:39:00;;;;;;;4.43;2.90;;;;;;;;;;518751;28;1468;-82